createdAt,value
2017-07-10T00:00:41.387Z,999.27
2017-07-10T00:01:37.743Z,999.29
2017-07-10T00:02:34.023Z,999.29
2017-07-10T00:03:30.318Z,999.21
2017-07-10T00:04:26.636Z,999.21
2017-07-10T00:05:22.938Z,999.22
2017-07-10T00:06:19.255Z,999.20
2017-07-10T00:07:15.579Z,999.22
2017-07-10T00:08:12.110Z,999.22
2017-07-10T00:09:08.426Z,999.21
2017-07-10T00:10:04.674Z,999.16
2017-07-10T00:11:02.089Z,999.18
2017-07-10T00:11:58.411Z,999.17
2017-07-10T00:12:54.795Z,999.19
2017-07-10T00:13:52.143Z,999.16
2017-07-10T00:14:48.724Z,999.16
2017-07-10T00:15:45.079Z,999.15
2017-07-10T00:16:41.457Z,999.14
2017-07-10T00:17:37.787Z,999.15
2017-07-10T00:18:34.175Z,999.06
2017-07-10T00:19:30.556Z,999.08
2017-07-10T00:20:27.767Z,999.05
2017-07-10T00:21:24.132Z,999.03
2017-07-10T00:22:20.523Z,999.05
2017-07-10T00:23:16.805Z,998.95
2017-07-10T00:24:13.172Z,999.05
2017-07-10T00:25:09.537Z,999.07
2017-07-10T00:26:05.991Z,999.00
2017-07-10T00:27:02.335Z,998.98
2017-07-10T00:27:58.662Z,999.08
2017-07-10T00:28:55.199Z,999.16
2017-07-10T00:29:51.618Z,999.14
2017-07-10T00:30:48.011Z,999.11
2017-07-10T00:31:44.349Z,999.13
2017-07-10T00:32:40.666Z,999.13
2017-07-10T00:33:38.931Z,999.16
2017-07-10T00:34:35.267Z,999.14
2017-07-10T00:35:32.443Z,999.21
2017-07-10T00:36:29.588Z,999.18
2017-07-10T00:37:26.019Z,999.20
2017-07-10T00:38:22.392Z,999.22
2017-07-10T00:39:18.755Z,999.21
2017-07-10T00:40:15.192Z,999.18
2017-07-10T00:41:11.555Z,999.16
2017-07-10T00:42:07.863Z,999.11
2017-07-10T00:43:04.224Z,999.17
2017-07-10T00:44:02.571Z,999.19
2017-07-10T00:44:58.961Z,999.11
2017-07-10T00:45:55.310Z,999.17
2017-07-10T00:46:51.691Z,999.15
2017-07-10T00:47:48.008Z,999.10
2017-07-10T00:48:44.331Z,999.17
2017-07-10T00:49:40.734Z,999.19
2017-07-10T00:50:37.100Z,999.07
2017-07-10T00:51:33.446Z,999.03
2017-07-10T00:52:29.738Z,999.06
2017-07-10T00:53:26.172Z,999.11
2017-07-10T00:54:22.615Z,999.09
2017-07-10T00:55:18.971Z,999.08
2017-07-10T00:56:15.324Z,999.09
2017-07-10T00:57:11.924Z,999.04
2017-07-10T00:58:09.063Z,999.05
2017-07-10T00:59:05.394Z,999.01
2017-07-10T01:00:01.705Z,999.07
2017-07-10T01:00:58.075Z,999.02
2017-07-10T01:01:54.419Z,999.01
2017-07-10T01:02:50.839Z,999.05
2017-07-10T01:03:47.220Z,999.05
2017-07-10T01:04:43.591Z,999.06
2017-07-10T01:05:39.902Z,999.08
2017-07-10T01:06:36.183Z,999.02
2017-07-10T01:07:32.494Z,998.99
2017-07-10T01:08:28.808Z,999.05
2017-07-10T01:09:25.238Z,999.08
2017-07-10T01:10:21.578Z,999.05
2017-07-10T01:11:17.886Z,999.08
2017-07-10T01:12:17.416Z,999.12
2017-07-10T01:13:14.524Z,999.09
2017-07-10T01:14:10.866Z,999.11
2017-07-10T01:15:07.195Z,999.11
2017-07-10T01:16:03.571Z,999.12
2017-07-10T01:16:59.955Z,999.08
2017-07-10T01:17:56.334Z,999.10
2017-07-10T01:18:52.935Z,999.06
2017-07-10T01:19:49.291Z,999.02
2017-07-10T01:20:45.632Z,999.00
2017-07-10T01:21:42.051Z,998.96
2017-07-10T01:22:39.346Z,998.97
2017-07-10T01:23:35.670Z,998.95
2017-07-10T01:24:32.259Z,998.83
2017-07-10T01:25:28.586Z,998.76
2017-07-10T01:26:25.029Z,998.76
2017-07-10T01:27:21.407Z,998.72
2017-07-10T01:28:17.827Z,998.66
2017-07-10T01:29:14.455Z,998.62
2017-07-10T01:30:10.783Z,998.56
2017-07-10T01:31:07.227Z,998.52
2017-07-10T01:32:03.535Z,998.59
2017-07-10T01:32:59.940Z,998.56
2017-07-10T01:33:56.345Z,998.60
2017-07-10T01:34:53.028Z,998.61
2017-07-10T01:35:49.371Z,998.55
2017-07-10T01:36:45.772Z,998.56
2017-07-10T01:37:42.135Z,998.57
2017-07-10T01:38:38.454Z,998.50
2017-07-10T01:39:34.783Z,998.54
2017-07-10T01:40:31.937Z,998.49
2017-07-10T01:41:29.188Z,998.51
2017-07-10T01:42:25.635Z,998.59
2017-07-10T01:43:23.764Z,998.59
2017-07-10T01:44:20.063Z,998.59
2017-07-10T01:45:16.385Z,998.56
2017-07-10T01:46:12.695Z,998.60
2017-07-10T01:47:09.030Z,998.58
2017-07-10T01:48:05.337Z,998.53
2017-07-10T01:49:01.783Z,998.47
2017-07-10T01:49:58.079Z,998.43
2017-07-10T01:50:54.403Z,998.41
2017-07-10T01:51:51.654Z,998.39
2017-07-10T01:52:48.304Z,998.37
2017-07-10T01:53:44.684Z,998.40
2017-07-10T01:54:41.050Z,998.33
2017-07-10T01:55:37.399Z,998.41
2017-07-10T01:56:33.707Z,998.43
2017-07-10T01:57:30.027Z,998.35
2017-07-10T01:58:27.136Z,998.38
2017-07-10T01:59:23.422Z,998.39
2017-07-10T02:00:19.780Z,998.38
2017-07-10T02:01:16.740Z,998.42
2017-07-10T02:02:13.115Z,998.25
2017-07-10T02:03:09.483Z,998.35
2017-07-10T02:04:05.778Z,998.26
2017-07-10T02:05:02.092Z,998.27
2017-07-10T02:05:58.478Z,998.22
2017-07-10T02:06:54.963Z,998.30
2017-07-10T02:07:51.332Z,998.27
2017-07-10T02:08:48.623Z,998.23
2017-07-10T02:09:45.011Z,998.41
2017-07-10T02:10:41.362Z,998.40
2017-07-10T02:11:38.675Z,998.43
2017-07-10T02:12:35.044Z,998.44
2017-07-10T02:13:31.391Z,998.42
2017-07-10T02:14:27.815Z,998.43
2017-07-10T02:15:24.207Z,998.42
2017-07-10T02:16:20.520Z,998.35
2017-07-10T02:17:17.082Z,998.39
2017-07-10T02:18:14.324Z,998.37
2017-07-10T02:19:10.710Z,998.34
2017-07-10T02:20:07.032Z,998.31
2017-07-10T02:21:03.451Z,998.30
2017-07-10T02:22:00.803Z,998.38
2017-07-10T02:22:57.174Z,998.36
2017-07-10T02:23:53.500Z,998.37
2017-07-10T02:24:50.820Z,998.31
2017-07-10T02:25:47.243Z,998.30
2017-07-10T02:26:43.600Z,998.28
2017-07-10T02:27:39.999Z,998.26
2017-07-10T02:28:36.308Z,998.22
2017-07-10T02:29:33.435Z,998.24
2017-07-10T02:30:30.048Z,998.22
2017-07-10T02:31:27.231Z,998.19
2017-07-10T02:32:23.568Z,998.16
2017-07-10T02:33:19.888Z,998.16
2017-07-10T02:34:16.252Z,998.09
2017-07-10T02:35:12.667Z,998.12
2017-07-10T02:36:08.979Z,998.14
2017-07-10T02:37:05.434Z,998.13
2017-07-10T02:38:01.722Z,998.09
2017-07-10T02:38:58.027Z,998.09
2017-07-10T02:39:54.403Z,998.04
2017-07-10T02:40:50.787Z,998.05
2017-07-10T02:41:47.179Z,998.04
2017-07-10T02:42:44.728Z,997.98
2017-07-10T02:43:41.139Z,998.02
2017-07-10T02:44:37.443Z,997.93
2017-07-10T02:45:33.856Z,997.99
2017-07-10T02:46:30.280Z,997.96
2017-07-10T02:47:26.643Z,997.97
2017-07-10T02:48:23.186Z,998.03
2017-07-10T02:49:19.468Z,997.88
2017-07-10T02:50:15.787Z,997.94
2017-07-10T02:51:12.092Z,997.86
2017-07-10T02:52:08.399Z,997.90
2017-07-10T02:53:04.738Z,997.90
2017-07-10T02:54:01.166Z,997.88
2017-07-10T02:54:57.504Z,997.87
2017-07-10T02:55:53.854Z,997.88
2017-07-10T02:56:50.187Z,997.80
2017-07-10T02:57:46.575Z,997.89
2017-07-10T02:58:42.892Z,997.83
2017-07-10T02:59:39.287Z,997.84
2017-07-10T03:00:35.657Z,997.84
2017-07-10T03:01:32.823Z,997.81
2017-07-10T03:02:29.217Z,997.75
2017-07-10T03:03:25.578Z,997.84
2017-07-10T03:04:21.933Z,997.82
2017-07-10T03:05:18.260Z,997.88
2017-07-10T03:06:14.600Z,997.82
2017-07-10T03:07:10.921Z,997.79
2017-07-10T03:08:07.243Z,997.84
2017-07-10T03:09:04.434Z,997.79
2017-07-10T03:10:01.759Z,997.75
2017-07-10T03:10:58.053Z,997.84
2017-07-10T03:11:54.420Z,997.84
2017-07-10T03:12:50.760Z,997.80
2017-07-10T03:13:47.110Z,997.77
2017-07-10T03:14:43.492Z,997.75
2017-07-10T03:15:39.927Z,997.80
2017-07-10T03:16:36.251Z,997.79
2017-07-10T03:17:32.599Z,997.88
2017-07-10T03:18:28.924Z,997.79
2017-07-10T03:19:25.239Z,997.83
2017-07-10T03:20:21.599Z,997.85
2017-07-10T03:21:17.947Z,997.72
2017-07-10T03:22:14.266Z,997.72
2017-07-10T03:23:10.605Z,997.61
2017-07-10T03:25:15.011Z,997.71
2017-07-10T03:26:12.159Z,997.70
2017-07-10T03:27:10.599Z,997.76
2017-07-10T03:28:06.979Z,997.72
2017-07-10T03:29:03.267Z,997.79
2017-07-10T03:29:59.905Z,997.74
2017-07-10T03:30:57.163Z,997.83
2017-07-10T03:31:54.335Z,997.79
2017-07-10T03:32:50.763Z,997.82
2017-07-10T03:33:48.875Z,997.76
2017-07-10T03:34:45.284Z,997.76
2017-07-10T03:35:41.667Z,997.72
2017-07-10T03:36:38.054Z,997.72
2017-07-10T03:37:34.402Z,997.70
2017-07-10T03:38:30.757Z,997.70
2017-07-10T03:39:27.090Z,997.65
2017-07-10T03:40:24.260Z,997.74
2017-07-10T03:41:20.875Z,997.69
2017-07-10T03:42:17.185Z,997.68
2017-07-10T03:43:14.583Z,997.70
2017-07-10T03:44:10.944Z,997.76
2017-07-10T03:45:07.359Z,997.79
2017-07-10T03:46:03.748Z,997.78
2017-07-10T03:47:00.407Z,997.72
2017-07-10T03:47:56.863Z,997.68
2017-07-10T03:48:53.231Z,997.79
2017-07-10T03:49:49.575Z,997.72
2017-07-10T03:50:45.912Z,997.73
2017-07-10T03:51:42.484Z,997.79
2017-07-10T03:52:38.920Z,997.82
2017-07-10T03:53:35.332Z,997.85
2017-07-10T03:54:32.732Z,997.86
2017-07-10T03:55:29.140Z,997.86
2017-07-10T03:56:25.462Z,997.90
2017-07-10T03:57:21.848Z,997.90
2017-07-10T03:58:18.946Z,997.92
2017-07-10T03:59:15.279Z,997.98
2017-07-10T04:00:11.564Z,997.90
2017-07-10T04:01:07.855Z,997.97
2017-07-10T04:02:04.171Z,998.00
2017-07-10T04:03:01.495Z,998.06
2017-07-10T04:03:57.875Z,998.06
2017-07-10T04:04:54.159Z,998.06
2017-07-10T04:05:53.436Z,998.07
2017-07-10T04:06:49.777Z,998.05
2017-07-10T04:07:46.128Z,997.97
2017-07-10T04:08:43.329Z,997.97
2017-07-10T04:09:40.642Z,997.99
2017-07-10T04:10:38.932Z,997.97
2017-07-10T04:11:35.267Z,998.00
2017-07-10T04:12:31.563Z,997.98
2017-07-10T04:13:28.094Z,997.93
2017-07-10T04:14:24.412Z,997.97
2017-07-10T04:15:20.964Z,998.04
2017-07-10T04:16:17.248Z,998.05
2017-07-10T04:17:13.576Z,998.07
2017-07-10T04:18:09.833Z,998.00
2017-07-10T04:19:06.139Z,998.07
2017-07-10T04:20:04.332Z,998.03
2017-07-10T04:21:00.656Z,997.97
2017-07-10T04:21:56.952Z,997.98
2017-07-10T04:22:53.227Z,998.03
2017-07-10T04:23:50.494Z,997.93
2017-07-10T04:24:46.909Z,998.01
2017-07-10T04:25:43.356Z,997.91
2017-07-10T04:26:39.960Z,997.97
2017-07-10T04:27:36.327Z,998.00
2017-07-10T04:28:32.688Z,998.00
2017-07-10T04:29:29.122Z,997.93
2017-07-10T04:30:25.415Z,998.00
2017-07-10T04:31:21.782Z,998.02
2017-07-10T04:32:18.123Z,998.08
2017-07-10T04:33:14.422Z,998.16
2017-07-10T04:34:10.730Z,998.08
2017-07-10T04:35:07.075Z,998.12
2017-07-10T04:36:03.397Z,998.08
2017-07-10T04:36:59.795Z,998.10
2017-07-10T04:37:56.197Z,998.09
2017-07-10T04:38:53.327Z,998.08
2017-07-10T04:39:49.624Z,997.96
2017-07-10T04:40:45.938Z,998.13
2017-07-10T04:41:42.259Z,998.05
2017-07-10T04:42:38.820Z,998.15
2017-07-10T04:43:35.231Z,998.06
2017-07-10T04:44:31.755Z,998.11
2017-07-10T04:45:28.120Z,998.11
2017-07-10T04:46:24.479Z,998.11
2017-07-10T04:47:20.908Z,998.08
2017-07-10T04:48:17.264Z,998.04
2017-07-10T04:49:13.547Z,998.05
2017-07-10T04:50:09.861Z,998.02
2017-07-10T04:51:06.245Z,998.09
2017-07-10T04:52:03.491Z,998.09
2017-07-10T04:52:59.928Z,998.01
2017-07-10T04:53:56.378Z,998.02
2017-07-10T04:54:52.745Z,997.94
2017-07-10T04:55:49.033Z,998.00
2017-07-10T04:56:45.355Z,997.96
2017-07-10T04:57:41.759Z,997.95
2017-07-10T04:58:38.095Z,997.95
2017-07-10T04:59:34.387Z,997.95
2017-07-10T05:00:30.704Z,997.96
2017-07-10T05:01:27.059Z,997.89
2017-07-10T05:02:23.367Z,997.91
2017-07-10T05:03:19.767Z,997.92
2017-07-10T05:04:16.115Z,997.89
2017-07-10T05:05:12.501Z,997.94
2017-07-10T05:06:08.770Z,998.00
2017-07-10T05:07:05.123Z,998.00
2017-07-10T05:08:02.463Z,998.08
2017-07-10T05:08:58.759Z,997.96
2017-07-10T05:09:55.047Z,998.02
2017-07-10T05:10:51.404Z,997.98
2017-07-10T05:11:47.735Z,998.03
2017-07-10T05:12:44.057Z,998.00
2017-07-10T05:13:40.415Z,998.04
2017-07-10T05:14:36.671Z,998.04
2017-07-10T05:15:33.947Z,997.96
2017-07-10T05:16:30.283Z,998.00
2017-07-10T05:17:26.599Z,998.02
2017-07-10T05:18:22.875Z,997.99
2017-07-10T05:19:20.151Z,997.96
2017-07-10T05:20:16.468Z,998.02
2017-07-10T05:21:12.815Z,997.93
2017-07-10T05:22:09.230Z,997.95
2017-07-10T05:24:07.778Z,997.98
2017-07-10T05:25:04.047Z,997.90
2017-07-10T05:26:00.371Z,997.92
2017-07-10T05:26:56.663Z,997.93
2017-07-10T05:27:52.911Z,997.92
2017-07-10T05:28:49.204Z,998.06
2017-07-10T05:29:45.509Z,997.99
2017-07-10T05:30:41.799Z,998.02
2017-07-10T05:31:38.083Z,998.03
2017-07-10T05:32:34.348Z,998.02
2017-07-10T05:33:30.675Z,998.01
2017-07-10T05:34:26.996Z,998.03
2017-07-10T05:35:23.298Z,997.96
2017-07-10T05:36:19.583Z,998.01
2017-07-10T05:37:15.947Z,997.99
2017-07-10T05:38:12.219Z,998.03
2017-07-10T05:39:08.494Z,998.02
2017-07-10T05:40:04.767Z,997.99
2017-07-10T05:41:01.039Z,997.97
2017-07-10T05:41:57.360Z,998.03
2017-07-10T05:42:53.635Z,998.02
2017-07-10T05:43:49.955Z,998.07
2017-07-10T05:44:46.275Z,998.00
2017-07-10T05:45:42.547Z,998.05
2017-07-10T05:46:38.947Z,998.07
2017-07-10T05:47:35.246Z,998.04
2017-07-10T05:48:31.559Z,998.02
2017-07-10T05:49:27.843Z,998.00
2017-07-10T05:50:24.138Z,997.97
2017-07-10T05:51:20.440Z,998.05
2017-07-10T05:52:16.711Z,998.00
2017-07-10T05:53:12.984Z,997.98
2017-07-10T05:54:09.243Z,997.96
2017-07-10T05:55:05.538Z,997.93
2017-07-10T05:56:02.639Z,997.96
2017-07-10T05:56:59.055Z,998.03
2017-07-10T05:57:56.334Z,997.96
2017-07-10T05:58:52.647Z,997.95
2017-07-10T05:59:48.977Z,997.97
2017-07-10T06:00:45.255Z,997.96
2017-07-10T06:01:41.532Z,997.97
2017-07-10T06:02:38.074Z,997.99
2017-07-10T06:03:34.395Z,998.01
2017-07-10T06:04:30.680Z,997.97
2017-07-10T06:05:26.970Z,997.95
2017-07-10T06:06:23.278Z,998.06
2017-07-10T06:07:19.559Z,998.05
2017-07-10T06:08:15.858Z,998.04
2017-07-10T06:09:12.180Z,998.08
2017-07-10T06:10:08.459Z,998.12
2017-07-10T06:11:04.747Z,998.11
2017-07-10T06:12:01.036Z,998.08
2017-07-10T06:12:57.357Z,998.01
2017-07-10T06:13:53.635Z,998.05
2017-07-10T06:14:49.954Z,998.05
2017-07-10T06:15:46.231Z,997.99
2017-07-10T06:16:42.583Z,998.02
2017-07-10T06:17:38.855Z,997.99
2017-07-10T06:18:35.135Z,998.03
2017-07-10T06:19:31.423Z,997.97
2017-07-10T06:20:27.688Z,997.96
2017-07-10T06:21:24.968Z,997.93
2017-07-10T06:22:21.282Z,997.98
2017-07-10T06:23:17.558Z,997.99
2017-07-10T06:24:13.831Z,997.98
2017-07-10T06:25:10.103Z,997.97
2017-07-10T06:26:06.427Z,997.99
2017-07-10T06:27:02.739Z,998.03
2017-07-10T06:27:59.006Z,997.97
2017-07-10T06:28:55.300Z,997.96
2017-07-10T06:29:51.571Z,997.93
2017-07-10T06:30:47.872Z,997.97
2017-07-10T06:31:44.200Z,997.96
2017-07-10T06:32:40.466Z,997.96
2017-07-10T06:33:36.751Z,997.94
2017-07-10T06:34:33.014Z,997.97
2017-07-10T06:35:30.123Z,997.90
2017-07-10T06:36:26.472Z,997.98
2017-07-10T06:37:22.770Z,997.92
2017-07-10T06:38:19.043Z,997.96
2017-07-10T06:39:15.323Z,997.94
2017-07-10T06:40:11.584Z,997.99
2017-07-10T06:41:07.846Z,997.99
2017-07-10T06:42:04.160Z,997.94
2017-07-10T06:43:00.459Z,998.05
2017-07-10T06:43:56.763Z,998.05
2017-07-10T06:44:53.075Z,997.98
2017-07-10T06:45:50.447Z,998.03
2017-07-10T06:46:46.744Z,997.97
2017-07-10T06:47:43.995Z,998.04
2017-07-10T06:48:40.303Z,998.10
2017-07-10T06:49:36.583Z,998.05
2017-07-10T06:50:33.735Z,998.09
2017-07-10T06:51:30.049Z,998.20
2017-07-10T06:52:26.367Z,998.22
2017-07-10T06:53:22.979Z,998.22
2017-07-10T06:54:19.264Z,998.23
2017-07-10T06:55:15.602Z,998.26
2017-07-10T06:56:11.946Z,998.32
2017-07-10T06:57:08.247Z,998.32
2017-07-10T06:58:04.559Z,998.29
2017-07-10T06:59:00.830Z,998.30
2017-07-10T06:59:57.111Z,998.35
2017-07-10T07:00:53.395Z,998.26
2017-07-10T07:01:49.687Z,998.27
2017-07-10T07:02:46.023Z,998.41
2017-07-10T07:03:42.282Z,998.34
2017-07-10T07:04:38.631Z,998.35
2017-07-10T07:05:34.928Z,998.36
2017-07-10T07:06:31.243Z,998.36
2017-07-10T07:07:27.548Z,998.27
2017-07-10T07:08:23.858Z,998.33
2017-07-10T07:09:20.130Z,998.30
2017-07-10T07:10:16.428Z,998.25
2017-07-10T07:11:12.739Z,998.32
2017-07-10T07:12:09.128Z,998.19
2017-07-10T07:13:05.454Z,998.26
2017-07-10T07:14:01.727Z,998.29
2017-07-10T07:14:58.003Z,998.30
2017-07-10T07:15:54.265Z,998.35
2017-07-10T07:16:50.579Z,998.34
2017-07-10T07:17:46.950Z,998.39
2017-07-10T07:18:43.344Z,998.31
2017-07-10T07:19:39.627Z,998.39
2017-07-10T07:20:35.903Z,998.33
2017-07-10T07:21:32.192Z,998.34
2017-07-10T07:22:28.587Z,998.31
2017-07-10T07:23:24.886Z,998.37
2017-07-10T07:24:21.152Z,998.29
2017-07-10T07:25:17.441Z,998.34
2017-07-10T07:26:13.755Z,998.34
2017-07-10T07:27:10.020Z,998.26
2017-07-10T07:28:06.339Z,998.36
2017-07-10T07:29:02.665Z,998.30
2017-07-10T07:29:59.026Z,998.30
2017-07-10T07:30:55.291Z,998.31
2017-07-10T07:31:51.562Z,998.35
2017-07-10T07:32:47.833Z,998.39
2017-07-10T07:33:44.147Z,998.34
2017-07-10T07:34:40.455Z,998.38
2017-07-10T07:35:36.765Z,998.32
2017-07-10T07:36:33.095Z,998.36
2017-07-10T07:37:29.375Z,998.40
2017-07-10T07:38:25.649Z,998.37
2017-07-10T07:39:21.937Z,998.39
2017-07-10T07:40:18.211Z,998.34
2017-07-10T07:41:14.509Z,998.35
2017-07-10T07:42:10.806Z,998.33
2017-07-10T07:43:07.059Z,998.35
2017-07-10T07:44:03.363Z,998.35
2017-07-10T07:44:59.627Z,998.27
2017-07-10T07:45:55.901Z,998.34
2017-07-10T07:46:52.251Z,998.25
2017-07-10T07:47:48.535Z,998.22
2017-07-10T07:48:44.815Z,998.14
2017-07-10T07:49:41.167Z,998.21
2017-07-10T07:50:37.455Z,998.19
2017-07-10T07:51:33.729Z,998.20
2017-07-10T07:52:29.986Z,998.15
2017-07-10T07:53:26.327Z,998.21
2017-07-10T07:54:22.674Z,998.23
2017-07-10T07:55:18.939Z,998.23
2017-07-10T07:56:15.229Z,998.18
2017-07-10T07:57:11.510Z,998.31
2017-07-10T07:58:07.774Z,998.27
2017-07-10T07:59:04.043Z,998.26
2017-07-10T08:00:00.387Z,998.18
2017-07-10T08:00:56.666Z,998.18
2017-07-10T08:01:52.983Z,998.27
2017-07-10T08:02:49.275Z,998.26
2017-07-10T08:03:45.566Z,998.36
2017-07-10T08:04:43.244Z,998.31
2017-07-10T08:05:39.523Z,998.35
2017-07-10T08:06:35.796Z,998.35
2017-07-10T08:07:32.094Z,998.33
2017-07-10T08:08:28.395Z,998.32
2017-07-10T08:09:24.751Z,998.26
2017-07-10T08:10:21.055Z,998.30
2017-07-10T08:11:17.331Z,998.31
2017-07-10T08:12:13.618Z,998.24
2017-07-10T08:13:10.910Z,998.32
2017-07-10T08:14:07.256Z,998.25
2017-07-10T08:15:03.579Z,998.24
2017-07-10T08:16:00.201Z,998.30
2017-07-10T08:16:56.454Z,998.27
2017-07-10T08:17:52.755Z,998.29
2017-07-10T08:18:49.007Z,998.21
2017-07-10T08:19:45.251Z,998.25
2017-07-10T08:20:41.519Z,998.25
2017-07-10T08:21:37.764Z,998.30
2017-07-10T08:22:34.023Z,998.29
2017-07-10T08:23:30.319Z,998.29
2017-07-10T08:24:26.655Z,998.24
2017-07-10T08:25:23.078Z,998.34
2017-07-10T08:26:19.375Z,998.31
2017-07-10T08:27:15.642Z,998.27
2017-07-10T08:28:11.890Z,998.31
2017-07-10T08:29:08.191Z,998.28
2017-07-10T08:30:04.443Z,998.25
2017-07-10T08:31:00.697Z,998.30
2017-07-10T08:31:56.968Z,998.23
2017-07-10T08:32:53.248Z,998.28
2017-07-10T08:33:49.571Z,998.18
2017-07-10T08:34:45.999Z,998.25
2017-07-10T08:35:42.319Z,998.19
2017-07-10T08:36:39.427Z,998.23
2017-07-10T08:37:35.690Z,998.22
2017-07-10T08:38:31.956Z,998.28
2017-07-10T08:39:28.218Z,998.22
2017-07-10T08:40:24.511Z,998.18
2017-07-10T08:41:20.783Z,998.15
2017-07-10T08:42:17.027Z,998.23
2017-07-10T08:43:13.284Z,998.11
2017-07-10T08:44:09.571Z,998.26
2017-07-10T08:45:05.954Z,998.27
2017-07-10T08:46:02.227Z,998.19
2017-07-10T08:46:59.668Z,998.25
2017-07-10T08:47:55.935Z,998.19
2017-07-10T08:48:52.216Z,998.20
2017-07-10T08:49:48.477Z,998.21
2017-07-10T08:50:44.754Z,998.17
2017-07-10T08:51:41.022Z,998.14
2017-07-10T08:52:37.358Z,998.20
2017-07-10T08:53:33.766Z,998.18
2017-07-10T08:54:30.019Z,998.16
2017-07-10T08:55:26.283Z,998.21
2017-07-10T08:56:22.546Z,998.24
2017-07-10T08:57:18.811Z,998.15
2017-07-10T08:58:15.070Z,998.12
2017-07-10T08:59:11.347Z,998.22
2017-07-10T09:00:07.610Z,998.15
2017-07-10T09:01:03.876Z,998.20
2017-07-10T09:02:00.151Z,998.20
2017-07-10T09:02:56.398Z,998.20
2017-07-10T09:03:52.895Z,998.16
2017-07-10T09:04:49.156Z,998.24
2017-07-10T09:05:45.427Z,998.17
2017-07-10T09:06:41.676Z,998.16
2017-07-10T09:07:37.953Z,998.18
2017-07-10T09:08:34.219Z,998.20
2017-07-10T09:09:30.481Z,998.24
2017-07-10T09:10:26.769Z,998.21
2017-07-10T09:11:23.023Z,998.17
2017-07-10T09:12:19.299Z,998.12
2017-07-10T09:13:15.543Z,998.18
2017-07-10T09:14:11.806Z,998.10
2017-07-10T09:15:09.927Z,998.10
2017-07-10T09:16:06.391Z,998.15
2017-07-10T09:17:03.580Z,998.16
2017-07-10T09:17:59.848Z,998.12
2017-07-10T09:18:56.123Z,998.12
2017-07-10T09:19:52.371Z,998.07
2017-07-10T09:20:49.527Z,998.10
2017-07-10T09:21:46.678Z,998.15
2017-07-10T09:22:43.027Z,998.18
2017-07-10T09:23:39.270Z,998.16
2017-07-10T09:24:35.502Z,998.12
2017-07-10T09:25:31.739Z,998.15
2017-07-10T09:26:28.951Z,998.15
2017-07-10T09:27:26.351Z,998.18
2017-07-10T09:28:22.906Z,998.12
2017-07-10T09:29:19.582Z,998.11
2017-07-10T09:30:15.826Z,998.10
2017-07-10T09:31:13.019Z,998.07
2017-07-10T09:32:09.263Z,998.04
2017-07-10T09:33:06.518Z,998.04
2017-07-10T09:34:02.765Z,998.12
2017-07-10T09:34:59.019Z,998.09
2017-07-10T09:35:55.254Z,998.13
2017-07-10T09:36:51.521Z,998.03
2017-07-10T09:37:47.798Z,998.00
2017-07-10T09:38:44.056Z,998.05
2017-07-10T09:39:40.331Z,997.99
2017-07-10T09:40:36.579Z,998.02
2017-07-10T09:41:32.820Z,998.04
2017-07-10T09:42:29.100Z,998.12
2017-07-10T09:43:25.385Z,998.14
2017-07-10T09:44:21.626Z,998.05
2017-07-10T09:45:17.871Z,998.08
2017-07-10T09:46:14.127Z,998.14
2017-07-10T09:47:10.383Z,998.10
2017-07-10T09:48:06.622Z,998.13
2017-07-10T09:49:02.871Z,998.13
2017-07-10T09:49:59.135Z,998.03
2017-07-10T09:50:55.423Z,998.04
2017-07-10T09:51:52.571Z,998.07
2017-07-10T09:52:49.711Z,998.15
2017-07-10T09:53:46.879Z,998.10
2017-07-10T09:54:44.134Z,998.03
2017-07-10T09:55:40.316Z,998.14
2017-07-10T09:56:36.556Z,998.07
2017-07-10T09:57:32.795Z,998.01
2017-07-10T09:58:29.036Z,998.02
2017-07-10T09:59:25.307Z,998.10
2017-07-10T10:00:21.542Z,997.97
2017-07-10T10:01:17.796Z,998.07
2017-07-10T10:02:14.055Z,997.99
2017-07-10T10:03:10.872Z,998.05
2017-07-10T10:04:07.178Z,997.99
2017-07-10T10:05:03.427Z,997.96
2017-07-10T10:05:59.671Z,997.97
2017-07-10T10:06:55.997Z,997.94
2017-07-10T10:07:52.290Z,997.98
2017-07-10T10:08:49.451Z,998.02
2017-07-10T10:09:45.707Z,998.01
2017-07-10T10:10:41.943Z,997.99
2017-07-10T10:11:38.211Z,997.92
2017-07-10T10:12:34.458Z,997.89
2017-07-10T10:13:30.699Z,998.02
2017-07-10T10:14:26.947Z,997.88
2017-07-10T10:15:23.200Z,997.90
2017-07-10T10:16:19.452Z,997.88
2017-07-10T10:17:15.775Z,997.96
2017-07-10T10:18:12.018Z,997.99
2017-07-10T10:19:08.274Z,997.99
2017-07-10T10:20:04.529Z,998.00
2017-07-10T10:21:00.773Z,997.95
2017-07-10T10:21:57.037Z,998.00
2017-07-10T10:22:53.519Z,998.00
2017-07-10T10:23:49.999Z,997.91
2017-07-10T10:24:46.232Z,997.95
2017-07-10T10:25:42.494Z,997.93
2017-07-10T10:26:38.735Z,997.92
2017-07-10T10:27:34.975Z,997.92
2017-07-10T10:28:31.206Z,997.90
2017-07-10T10:29:27.450Z,997.91
2017-07-10T10:30:23.723Z,998.02
2017-07-10T10:31:19.983Z,997.93
2017-07-10T10:32:16.230Z,997.91
2017-07-10T10:33:12.483Z,997.92
2017-07-10T10:34:08.718Z,997.88
2017-07-10T10:35:04.958Z,997.86
2017-07-10T10:36:01.215Z,997.84
2017-07-10T10:36:57.455Z,997.79
2017-07-10T10:37:53.707Z,997.83
2017-07-10T10:38:49.950Z,997.88
2017-07-10T10:39:46.188Z,997.78
2017-07-10T10:40:42.428Z,997.83
2017-07-10T10:41:38.691Z,997.79
2017-07-10T10:42:34.970Z,997.78
2017-07-10T10:43:31.227Z,997.82
2017-07-10T10:44:27.483Z,997.86
2017-07-10T10:45:23.734Z,997.75
2017-07-10T10:46:19.986Z,997.82
2017-07-10T10:47:16.226Z,997.77
2017-07-10T10:48:12.495Z,997.75
2017-07-10T10:49:09.495Z,997.76
2017-07-10T10:50:05.742Z,997.73
2017-07-10T10:51:01.986Z,997.70
2017-07-10T10:51:58.251Z,997.71
2017-07-10T10:52:54.492Z,997.66
2017-07-10T10:53:50.742Z,997.70
2017-07-10T10:54:46.983Z,997.62
2017-07-10T10:55:43.231Z,997.69
2017-07-10T10:56:39.496Z,997.67
2017-07-10T10:57:35.743Z,997.74
2017-07-10T10:58:31.999Z,997.72
2017-07-10T10:59:28.238Z,997.62
2017-07-10T11:00:24.486Z,997.69
2017-07-10T11:01:20.744Z,997.68
2017-07-10T11:02:17.010Z,997.69
2017-07-10T11:03:13.251Z,997.69
2017-07-10T11:04:09.486Z,997.70
2017-07-10T11:05:05.726Z,997.64
2017-07-10T11:06:01.957Z,997.73
2017-07-10T11:06:58.203Z,997.63
2017-07-10T11:07:54.467Z,997.67
2017-07-10T11:08:50.735Z,997.74
2017-07-10T11:09:46.978Z,997.66
2017-07-10T11:10:43.227Z,997.69
2017-07-10T11:11:40.276Z,997.64
2017-07-10T11:12:36.514Z,997.69
2017-07-10T11:13:32.770Z,997.68
2017-07-10T11:14:29.010Z,997.61
2017-07-10T11:15:25.248Z,997.62
2017-07-10T11:16:21.739Z,997.58
2017-07-10T11:17:17.983Z,997.56
2017-07-10T11:18:14.243Z,997.64
2017-07-10T11:19:10.488Z,997.57
2017-07-10T11:20:06.738Z,997.59
2017-07-10T11:21:02.975Z,997.63
2017-07-10T11:21:59.227Z,997.59
2017-07-10T11:22:55.478Z,997.53
2017-07-10T11:23:51.718Z,997.61
2017-07-10T11:24:47.960Z,997.60
2017-07-10T11:25:44.199Z,997.59
2017-07-10T11:26:40.454Z,997.61
2017-07-10T11:27:36.695Z,997.56
2017-07-10T11:28:32.946Z,997.62
2017-07-10T11:29:29.185Z,997.60
2017-07-10T11:30:25.432Z,997.64
2017-07-10T11:31:21.671Z,997.67
2017-07-10T11:32:17.918Z,997.66
2017-07-10T11:33:14.181Z,997.61
2017-07-10T11:34:10.430Z,997.59
2017-07-10T11:35:06.681Z,997.58
2017-07-10T11:36:02.924Z,997.54
2017-07-10T11:36:59.168Z,997.56
2017-07-10T11:37:55.427Z,997.59
2017-07-10T11:38:51.675Z,997.64
2017-07-10T11:39:47.931Z,997.60
2017-07-10T11:40:44.182Z,997.63
2017-07-10T11:41:40.426Z,997.54
2017-07-10T11:42:36.675Z,997.63
2017-07-10T11:43:32.942Z,997.65
2017-07-10T11:44:29.182Z,997.60
2017-07-10T11:45:25.431Z,997.55
2017-07-10T11:46:21.674Z,997.56